This is the latest recevied weather packets stored in our database for station/object OK1FET-14. If no packets are shown the sender has not sent any weather packets the latest 1 day(s).
| Time | Temp. | Humidity | Pressure | Rain* | Wind** | Luminosity | Snow |
|---|---|---|---|---|---|---|---|
| 1778075427 | 20.56° C | 60% | 1007.1 hPa | - | - | - | - |
| 1778075427 | 20.56° C | 60% | 1007.1 hPa | - | - | - | - |
| 1778075423 | 20.56° C | 60% | 1007.1 hPa | - | - | - | - |
| 1778075423 | 20.56° C | 60% | 1007.1 hPa | - | - | - | - |
| 1778075423 | 20.56° C | 60% | 1007.1 hPa | - | - | - | - |
| 1778075146 | 20.56° C | 54% | 1007.1 hPa | - | - | - | - |
| 1778075146 | 20.56° C | 54% | 1007.1 hPa | - | - | - | - |
| 1778075142 | 20.56° C | 54% | 1007.1 hPa | - | - | - | - |
| 1778075142 | 20.56° C | 54% | 1007.1 hPa | - | - | - | - |
| 1778075142 | 20.56° C | 54% | 1007.1 hPa | - | - | - | - |
| 1778074865 | 20.56° C | 56% | 1007 hPa | - | - | - | - |
| 1778074861 | 20.56° C | 56% | 1007 hPa | - | - | - | - |
| 1778074861 | 20.56° C | 56% | 1007 hPa | - | - | - | - |
| 1778074861 | 20.56° C | 56% | 1007 hPa | - | - | - | - |
| 1778074298 | 20° C | 54% | 1007.1 hPa | - | - | - | - |
| 1778073735 | 25° C | 62% | 1007.1 hPa | - | - | - | - |
| 1778073735 | 25° C | 62% | 1007.1 hPa | - | - | - | - |
| 1778073460 | 22.22° C | 47% | 1007.2 hPa | - | - | - | - |
| 1778073177 | 22.78° C | 45% | 1007.2 hPa | - | - | - | - |
| 1778073176 | 22.78° C | 45% | 1007.2 hPa | - | - | - | - |
| 1778073172 | 22.78° C | 45% | 1007.2 hPa | - | - | - | - |
| 1778073172 | 22.78° C | 45% | 1007.2 hPa | - | - | - | - |
| 1778073172 | 22.78° C | 45% | 1007.2 hPa | - | - | - | - |
| 1778072613 | 25.56° C | 46% | 1007.3 hPa | - | - | - | - |
| 1778072609 | 25.56° C | 46% | 1007.3 hPa | - | - | - | - |
* Rain since midnight (hover to see other rain measurements)
** Current wind speed in m/s (hover to see current wind gust speed)